createdAt,value
2018-08-19T00:00:46.060Z,101353.05
2018-08-19T00:01:49.860Z,101353.05
2018-08-19T00:02:57.854Z,101349.69
2018-08-19T00:04:01.298Z,101348.65
2018-08-19T00:05:12.740Z,101357.20
2018-08-19T00:06:16.256Z,101351.42
2018-08-19T00:07:19.716Z,101351.42
2018-08-19T00:08:23.136Z,101352.47
2018-08-19T00:09:26.575Z,101350.27
2018-08-19T00:11:10.960Z,101352.47
2018-08-19T00:12:15.020Z,101353.54
2018-08-19T00:13:18.439Z,101349.11
2018-08-19T00:14:30.122Z,101352.96
2018-08-19T00:15:33.617Z,101349.61
2018-08-19T00:16:37.158Z,101347.98
2018-08-19T00:17:40.665Z,101346.25
2018-08-19T00:18:44.121Z,101352.96
2018-08-19T00:19:47.575Z,101347.98
2018-08-19T00:20:51.086Z,101347.98
2018-08-19T00:21:54.623Z,101345.52
2018-08-19T00:22:58.042Z,101341.94
2018-08-19T00:24:01.617Z,101344.95
2018-08-19T00:25:05.336Z,101342.52
2018-08-19T00:26:08.782Z,101337.77
2018-08-19T00:27:12.200Z,101338.93
2018-08-19T00:28:16.916Z,101338.35
2018-08-19T00:29:27.404Z,101339.51
2018-08-19T00:30:32.530Z,101336.73
2018-08-19T00:31:36.692Z,101337.55
2018-08-19T00:32:40.084Z,101336.97
2018-08-19T00:33:43.511Z,101338.00
2018-08-19T00:34:47.490Z,101339.97
2018-08-19T00:35:50.897Z,101342.17
2018-08-19T00:36:54.320Z,101339.97
2018-08-19T00:37:57.931Z,101335.81
2018-08-19T00:39:01.383Z,101336.62
2018-08-19T00:40:09.954Z,101332.45
2018-08-19T00:41:13.435Z,101335.81
2018-08-19T00:42:16.856Z,101333.03
2018-08-19T00:43:20.370Z,101335.23
2018-08-19T00:44:23.818Z,101333.84
2018-08-19T00:45:27.417Z,101336.62
2018-08-19T00:46:32.055Z,101337.20
2018-08-19T00:47:35.554Z,101332.22
2018-08-19T00:48:39.090Z,101334.11
2018-08-19T00:49:43.690Z,101332.45
2018-08-19T00:50:47.126Z,101328.06
2018-08-19T00:51:55.700Z,101335.00
2018-08-19T00:52:59.142Z,101331.06
2018-08-19T00:54:02.525Z,101329.36
2018-08-19T00:55:06.032Z,101329.36
2018-08-19T00:56:09.435Z,101332.37
2018-08-19T00:57:12.929Z,101333.76
2018-08-19T00:58:20.631Z,101324.84
2018-08-19T00:59:24.693Z,101328.09
2018-08-19T01:00:29.397Z,101324.50
2018-08-19T01:01:34.617Z,101325.55
2018-08-19T01:02:38.015Z,101326.93
2018-08-19T01:03:52.652Z,101325.55
2018-08-19T01:04:56.078Z,101320.80
2018-08-19T01:05:59.557Z,101324.62
2018-08-19T01:07:03.282Z,101315.25
2018-08-19T01:08:06.802Z,101326.58
2018-08-19T01:09:11.008Z,101317.67
2018-08-19T01:10:14.430Z,101316.63
2018-08-19T01:11:25.752Z,101316.05
2018-08-19T01:12:29.153Z,101318.02
2018-08-19T01:13:32.637Z,101318.83
2018-08-19T01:14:36.579Z,101324.97
2018-08-19T01:15:40.021Z,101322.77
2018-08-19T01:16:43.474Z,101318.02
2018-08-19T01:17:46.930Z,101322.77
2018-08-19T01:18:54.526Z,101315.59
2018-08-19T01:20:02.106Z,101312.81
2018-08-19T01:21:10.627Z,101312.81
2018-08-19T01:22:14.102Z,101309.81
2018-08-19T01:23:17.538Z,101308.08
2018-08-19T01:24:21.510Z,101311.20
2018-08-19T01:25:24.989Z,101311.43
2018-08-19T01:26:28.567Z,101318.37
2018-08-19T01:27:32.802Z,101316.52
2018-08-19T01:28:36.941Z,101318.72
2018-08-19T01:29:44.338Z,101313.52
2018-08-19T01:30:47.733Z,101311.89
2018-08-19T01:31:52.788Z,101312.44
2018-08-19T01:32:56.223Z,101316.95
2018-08-19T01:34:00.059Z,101308.05
2018-08-19T01:35:03.525Z,101305.62
2018-08-19T01:36:07.236Z,101301.45
2018-08-19T01:37:10.671Z,101300.41
2018-08-19T01:38:14.098Z,101305.39
2018-08-19T01:39:17.546Z,101303.77
2018-08-19T01:40:20.989Z,101304.92
2018-08-19T01:41:24.715Z,101300.18
2018-08-19T01:42:28.123Z,101303.77
2018-08-19T01:43:31.508Z,101300.99
2018-08-19T01:44:34.923Z,101302.38
2018-08-19T01:45:38.359Z,101303.77
2018-08-19T01:46:47.165Z,101300.41
2018-08-19T01:47:50.707Z,101305.62
2018-08-19T01:48:54.273Z,101309.55
2018-08-19T01:49:57.720Z,101309.78
2018-08-19T01:51:01.109Z,101308.16
2018-08-19T01:52:04.580Z,101315.10
2018-08-19T01:53:08.000Z,101313.72
2018-08-19T01:54:17.501Z,101310.94
2018-08-19T01:55:20.914Z,101311.52
2018-08-19T01:56:24.301Z,101312.09
2018-08-19T01:57:33.113Z,101310.94
2018-08-19T01:58:40.915Z,101307.93
2018-08-19T01:59:44.337Z,101310.12
2018-08-19T02:00:47.739Z,101307.13
2018-08-19T02:01:54.136Z,101310.70
2018-08-19T02:03:01.252Z,101312.09
2018-08-19T02:04:04.676Z,101309.67
2018-08-19T02:05:08.161Z,101312.09
2018-08-19T02:06:11.661Z,101316.03
2018-08-19T02:07:16.609Z,101314.64
2018-08-19T02:08:20.345Z,101314.64
2018-08-19T02:09:23.928Z,101311.05
2018-08-19T02:10:28.128Z,101317.19
2018-08-19T02:11:31.546Z,101314.98
2018-08-19T02:12:38.254Z,101315.80
2018-08-19T02:13:41.682Z,101318.57
2018-08-19T02:14:45.136Z,101314.41
2018-08-19T02:15:48.614Z,101315.80
2018-08-19T02:16:52.985Z,101317.77
2018-08-19T02:17:58.420Z,101318.57
2018-08-19T02:19:01.976Z,101312.21
2018-08-19T02:20:05.808Z,101309.20
2018-08-19T02:21:09.216Z,101307.47
2018-08-19T02:22:12.640Z,101306.89
2018-08-19T02:23:16.044Z,101308.05
2018-08-19T02:24:19.889Z,101306.08
2018-08-19T02:25:23.284Z,101306.31
2018-08-19T02:26:29.829Z,101312.09
2018-08-19T02:27:33.274Z,101308.16
2018-08-19T02:28:36.777Z,101308.51
2018-08-19T02:29:40.184Z,101316.49
2018-08-19T02:30:50.075Z,101309.32
2018-08-19T02:31:58.795Z,101309.09
2018-08-19T02:33:02.616Z,101317.07
2018-08-19T02:34:06.070Z,101313.72
2018-08-19T02:35:09.524Z,101309.89
2018-08-19T02:36:14.844Z,101310.70
2018-08-19T02:37:18.505Z,101311.28
2018-08-19T02:38:22.049Z,101317.65
2018-08-19T02:39:25.456Z,101312.09
2018-08-19T02:40:31.777Z,101314.87
2018-08-19T02:41:36.032Z,101308.51
2018-08-19T02:42:39.509Z,101313.72
2018-08-19T02:44:00.345Z,101309.32
2018-08-19T02:45:05.265Z,101312.44
2018-08-19T02:46:08.760Z,101313.83
2018-08-19T02:47:12.193Z,101312.21
2018-08-19T02:48:15.652Z,101321.92
2018-08-19T02:49:19.054Z,101307.81
2018-08-19T02:50:22.465Z,101313.59
2018-08-19T02:51:25.905Z,101316.38
2018-08-19T02:52:33.785Z,101312.21
2018-08-19T02:53:37.224Z,101317.77
2018-08-19T02:54:40.654Z,101318.80
2018-08-19T02:55:44.072Z,101315.22
2018-08-19T02:56:47.519Z,101316.61
2018-08-19T02:57:52.424Z,101319.61
2018-08-19T02:58:55.846Z,101314.06
2018-08-19T03:00:00.312Z,101309.67
2018-08-19T03:01:03.742Z,101310.48
2018-08-19T03:02:17.404Z,101311.63
2018-08-19T03:03:20.916Z,101314.64
2018-08-19T03:04:24.317Z,101316.61
2018-08-19T03:05:27.718Z,101314.98
2018-08-19T03:06:31.132Z,101305.27
2018-08-19T03:07:34.712Z,101313.37
2018-08-19T03:08:50.052Z,101313.37
2018-08-19T03:09:58.878Z,101313.37
2018-08-19T03:11:02.289Z,101310.36
2018-08-19T03:12:09.532Z,101311.75
2018-08-19T03:13:13.038Z,101308.16
2018-08-19T03:14:16.400Z,101311.52
2018-08-19T03:15:19.993Z,101302.38
2018-08-19T03:16:23.380Z,101312.33
2018-08-19T03:17:27.890Z,101306.08
2018-08-19T03:18:31.303Z,101309.09
2018-08-19T03:19:34.696Z,101304.92
2018-08-19T03:20:38.108Z,101307.47
2018-08-19T03:21:41.569Z,101310.83
2018-08-19T03:22:44.963Z,101307.47
2018-08-19T03:23:50.859Z,101303.88
2018-08-19T03:24:54.840Z,101305.27
2018-08-19T03:25:59.184Z,101303.08
2018-08-19T03:27:02.597Z,101304.17
2018-08-19T03:28:06.521Z,101304.74
2018-08-19T03:29:14.076Z,101305.04
2018-08-19T03:30:17.567Z,101304.17
2018-08-19T03:31:20.933Z,101303.08
2018-08-19T03:32:24.983Z,101301.69
2018-08-19T03:33:28.443Z,101302.27
2018-08-19T03:34:32.148Z,101302.27
2018-08-19T03:35:35.583Z,101304.46
2018-08-19T03:36:39.008Z,101301.69
2018-08-19T03:37:42.362Z,101300.30
2018-08-19T03:38:45.804Z,101308.05
2018-08-19T03:39:49.216Z,101304.46
2018-08-19T03:40:52.954Z,101300.30
2018-08-19T03:41:56.348Z,101304.46
2018-08-19T03:42:59.798Z,101300.30
2018-08-19T03:44:03.253Z,101298.10
2018-08-19T03:45:12.022Z,101301.16
2018-08-19T03:46:17.213Z,101299.54
2018-08-19T03:47:20.641Z,101297.34
2018-08-19T03:48:24.029Z,101298.16
2018-08-19T03:49:27.438Z,101297.34
2018-08-19T03:50:30.847Z,101295.38
2018-08-19T03:51:34.253Z,101295.95
2018-08-19T03:52:37.654Z,101292.38
2018-08-19T03:53:41.104Z,101292.60
2018-08-19T03:54:45.437Z,101286.24
2018-08-19T03:55:48.887Z,101289.48
2018-08-19T03:56:52.301Z,101298.62
2018-08-19T03:57:59.991Z,101293.36
2018-08-19T03:59:06.252Z,101291.16
2018-08-19T04:00:10.055Z,101298.10
2018-08-19T04:01:13.548Z,101293.94
2018-08-19T04:02:17.084Z,101292.55
2018-08-19T04:03:26.528Z,101296.13
2018-08-19T04:04:29.963Z,101297.23
2018-08-19T04:05:44.094Z,101301.92
2018-08-19T04:06:47.762Z,101292.25
2018-08-19T04:07:51.137Z,101300.58
2018-08-19T04:08:54.654Z,101301.39
2018-08-19T04:09:58.088Z,101300.30
2018-08-19T04:11:01.996Z,101297.52
2018-08-19T04:12:11.643Z,101297.52
2018-08-19T04:13:44.740Z,101300.30
2018-08-19T04:14:48.257Z,101298.33
2018-08-19T04:15:51.687Z,101297.23
2018-08-19T04:16:56.900Z,101296.72
2018-08-19T04:18:00.269Z,101293.64
2018-08-19T04:19:09.395Z,101296.42
2018-08-19T04:20:12.836Z,101295.61
2018-08-19T04:21:17.501Z,101299.31
2018-08-19T04:22:20.936Z,101292.60
2018-08-19T04:23:24.402Z,101295.38
2018-08-19T04:24:28.661Z,101298.73
2018-08-19T04:25:35.351Z,101294.91
2018-08-19T04:26:38.721Z,101299.08
2018-08-19T04:27:42.128Z,101299.66
2018-08-19T04:28:46.181Z,101297.23
2018-08-19T04:29:49.624Z,101299.42
2018-08-19T04:30:54.664Z,101301.39
2018-08-19T04:31:58.086Z,101301.39
2018-08-19T04:33:01.510Z,101301.39
2018-08-19T04:34:04.981Z,101301.39
2018-08-19T04:35:08.470Z,101304.74
2018-08-19T04:36:14.111Z,101298.38
2018-08-19T04:37:17.550Z,101300.92
2018-08-19T04:38:22.175Z,101297.57
2018-08-19T04:39:25.594Z,101300.92
2018-08-19T04:40:28.976Z,101305.32
2018-08-19T04:41:32.376Z,101305.90
2018-08-19T04:42:35.756Z,101304.52
2018-08-19T04:43:39.148Z,101305.32
2018-08-19T04:44:42.552Z,101305.67
2018-08-19T04:45:45.917Z,101304.86
2018-08-19T04:46:50.055Z,101299.54
2018-08-19T04:47:53.453Z,101305.32
2018-08-19T04:48:56.826Z,101303.94
2018-08-19T04:50:00.235Z,101308.09
2018-08-19T04:51:03.684Z,101308.09
2018-08-19T04:52:08.621Z,101306.70
2018-08-19T04:53:12.059Z,101309.25
2018-08-19T04:54:15.444Z,101310.64
2018-08-19T04:55:18.907Z,101309.25
2018-08-19T04:56:22.497Z,101309.48
2018-08-19T04:57:25.934Z,101309.83
2018-08-19T04:58:29.356Z,101309.83
2018-08-19T04:59:32.711Z,101311.56
2018-08-19T05:00:36.125Z,101316.77
2018-08-19T05:01:39.532Z,101311.80
2018-08-19T05:02:43.006Z,101313.19
2018-08-19T05:03:46.811Z,101315.73
2018-08-19T05:04:50.232Z,101317.00
2018-08-19T05:05:53.692Z,101311.80
2018-08-19T05:06:57.237Z,101313.99
2018-08-19T05:08:00.681Z,101313.19
2018-08-19T05:09:05.505Z,101313.99
2018-08-19T05:10:09.001Z,101314.80
2018-08-19T05:11:12.432Z,101314.57
2018-08-19T05:12:15.892Z,101315.37
2018-08-19T05:13:19.322Z,101313.99
2018-08-19T05:14:22.762Z,101316.19
2018-08-19T05:15:26.342Z,101318.16
2018-08-19T05:16:29.746Z,101310.75
2018-08-19T05:17:33.184Z,101316.53
2018-08-19T05:18:36.621Z,101322.66
2018-08-19T05:19:40.023Z,101311.56
2018-08-19T05:20:43.526Z,101311.91
2018-08-19T05:21:47.147Z,101308.33
2018-08-19T05:22:50.563Z,101310.87
2018-08-19T05:23:53.968Z,101317.23
2018-08-19T05:24:57.350Z,101318.03
2018-08-19T05:26:00.772Z,101322.55
2018-08-19T05:27:07.595Z,101319.77
2018-08-19T05:28:11.017Z,101321.16
2018-08-19T05:29:14.511Z,101315.37
2018-08-19T05:30:17.924Z,101318.96
2018-08-19T05:31:21.323Z,101316.19
2018-08-19T05:32:24.728Z,101320.92
2018-08-19T05:33:28.148Z,101321.47
2018-08-19T05:34:32.680Z,101319.62
2018-08-19T05:35:36.074Z,101319.62
2018-08-19T05:36:39.488Z,101319.62
2018-08-19T05:37:43.195Z,101323.78
2018-08-19T05:38:46.644Z,101317.42
2018-08-19T05:39:57.500Z,101324.94
2018-08-19T05:41:02.352Z,101322.97
2018-08-19T05:42:12.162Z,101324.36
2018-08-19T05:43:15.585Z,101324.94
2018-08-19T05:44:19.012Z,101321.58
2018-08-19T05:45:22.533Z,101324.59
2018-08-19T05:46:25.910Z,101314.07
2018-08-19T05:47:29.296Z,101322.05
2018-08-19T05:48:32.723Z,101315.92
2018-08-19T05:49:38.213Z,101318.96
2018-08-19T05:50:41.604Z,101316.77
2018-08-19T05:51:44.985Z,101312.02
2018-08-19T05:52:48.402Z,101313.06
2018-08-19T05:53:53.672Z,101311.09
2018-08-19T05:54:59.492Z,101317.80
2018-08-19T05:56:02.943Z,101320.81
2018-08-19T05:57:06.585Z,101312.48
2018-08-19T05:58:10.012Z,101315.27
2018-08-19T05:59:13.444Z,101316.65
2018-08-19T06:00:23.654Z,101316.08
2018-08-19T06:01:32.035Z,101316.65
2018-08-19T06:02:40.827Z,101310.87
2018-08-19T06:03:44.227Z,101318.96
2018-08-19T06:04:47.640Z,101320.58
2018-08-19T06:05:51.054Z,101318.15
2018-08-19T06:06:58.631Z,101320.34
2018-08-19T06:08:07.463Z,101318.96
2018-08-19T06:09:10.870Z,101319.19
2018-08-19T06:10:14.264Z,101319.53
2018-08-19T06:11:17.657Z,101315.61
2018-08-19T06:12:21.084Z,101315.61
2018-08-19T06:13:24.642Z,101317.00
2018-08-19T06:14:28.039Z,101319.19
2018-08-19T06:15:31.471Z,101314.45
2018-08-19T06:16:35.217Z,101321.16
2018-08-19T06:17:38.653Z,101317.00
2018-08-19T06:18:43.677Z,101312.83
2018-08-19T06:19:47.189Z,101314.45
2018-08-19T06:20:50.699Z,101315.03
2018-08-19T06:21:54.138Z,101323.02
2018-08-19T06:22:57.588Z,101323.02
2018-08-19T06:24:01.023Z,101319.42
2018-08-19T06:25:04.764Z,101319.66
2018-08-19T06:26:08.366Z,101321.28
2018-08-19T06:27:19.771Z,101322.09
2018-08-19T06:28:23.419Z,101319.08
2018-08-19T06:29:50.508Z,101317.11
2018-08-19T06:30:53.978Z,101320.47
2018-08-19T06:31:57.415Z,101325.20
2018-08-19T06:33:00.943Z,101322.20
2018-08-19T06:34:04.419Z,101316.88
2018-08-19T06:35:08.139Z,101311.33
2018-08-19T06:36:11.528Z,101316.30
2018-08-19T06:37:14.985Z,101317.58
2018-08-19T06:38:18.390Z,101313.99
2018-08-19T06:39:21.814Z,101315.84
2018-08-19T06:40:25.378Z,101316.61
2018-08-19T06:41:28.765Z,101308.52
2018-08-19T06:42:32.232Z,101314.75
2018-08-19T06:43:35.628Z,101314.48
2018-08-19T06:44:39.038Z,101312.39
2018-08-19T06:45:42.477Z,101316.20
2018-08-19T06:46:45.955Z,101316.30
2018-08-19T06:47:49.461Z,101317.77
2018-08-19T06:48:52.912Z,101318.34
2018-08-19T06:49:57.782Z,101317.65
2018-08-19T06:51:06.796Z,101311.98
2018-08-19T06:52:11.393Z,101306.07
2018-08-19T06:53:20.175Z,101307.30
2018-08-19T06:54:23.604Z,101308.22
2018-08-19T06:55:27.042Z,101311.34
2018-08-19T06:56:30.483Z,101303.70
2018-08-19T06:57:33.938Z,101307.39
2018-08-19T06:58:37.336Z,101301.00
2018-08-19T06:59:40.836Z,101299.73
2018-08-19T07:00:44.264Z,101300.14
2018-08-19T07:01:47.728Z,101303.83
2018-08-19T07:02:51.255Z,101308.56
2018-08-19T07:03:56.852Z,101302.45
2018-08-19T07:05:00.365Z,101307.75
2018-08-19T07:06:10.765Z,101309.14
2018-08-19T07:07:19.800Z,101306.37
2018-08-19T07:08:23.308Z,101310.77
2018-08-19T07:09:26.782Z,101303.26
2018-08-19T07:10:38.737Z,101301.77
2018-08-19T07:11:57.935Z,101312.05
2018-08-19T07:13:07.569Z,101312.85
2018-08-19T07:14:11.000Z,101308.93
2018-08-19T07:15:14.384Z,101305.69
2018-08-19T07:16:19.362Z,101310.08
2018-08-19T07:17:22.800Z,101312.38
2018-08-19T07:18:26.225Z,101303.26
2018-08-19T07:19:29.656Z,101300.83
2018-08-19T07:20:33.336Z,101299.78
2018-08-19T07:21:36.888Z,101302.31
2018-08-19T07:22:40.357Z,101303.00
2018-08-19T07:23:43.820Z,101304.39
2018-08-19T07:24:47.242Z,101307.73
2018-08-19T07:25:50.740Z,101316.62
2018-08-19T07:26:54.168Z,101311.08
2018-08-19T07:27:57.570Z,101318.25
2018-08-19T07:29:00.964Z,101313.85
2018-08-19T07:30:05.140Z,101310.50
2018-08-19T07:31:08.556Z,101307.97
2018-08-19T07:32:13.009Z,101303.58
2018-08-19T07:33:16.602Z,101309.35
2018-08-19T07:34:20.040Z,101305.77
2018-08-19T07:35:23.492Z,101305.67
2018-08-19T07:36:26.860Z,101304.28
2018-08-19T07:37:30.272Z,101305.91
2018-08-19T07:38:33.652Z,101305.91
2018-08-19T07:39:44.808Z,101302.55
2018-08-19T07:40:48.229Z,101300.02
2018-08-19T07:41:51.784Z,101306.14
2018-08-19T07:42:55.176Z,101306.48
2018-08-19T07:43:58.601Z,101301.51
2018-08-19T07:45:02.010Z,101296.30
2018-08-19T07:46:06.218Z,101301.04
2018-08-19T07:47:09.652Z,101302.19
2018-08-19T07:48:13.071Z,101299.08
2018-08-19T07:49:16.460Z,101304.96
2018-08-19T07:50:19.865Z,101296.88
2018-08-19T07:51:23.290Z,101300.46
2018-08-19T07:52:26.723Z,101304.62
2018-08-19T07:53:30.169Z,101299.89
2018-08-19T07:54:33.872Z,101306.71
2018-08-19T07:55:37.271Z,101308.44
2018-08-19T07:56:40.728Z,101308.44
2018-08-19T07:57:44.172Z,101310.06
2018-08-19T07:58:52.180Z,101311.45
2018-08-19T07:59:55.684Z,101312.25
2018-08-19T08:00:59.098Z,101305.33
2018-08-19T08:02:02.533Z,101309.48
2018-08-19T08:03:06.078Z,101303.94
2018-08-19T08:04:10.422Z,101310.87
2018-08-19T08:05:13.844Z,101305.91
2018-08-19T08:06:17.255Z,101310.87
2018-08-19T08:07:21.376Z,101306.95
2018-08-19T08:08:24.826Z,101298.29
2018-08-19T08:09:28.371Z,101303.26
2018-08-19T08:10:31.793Z,101294.84
2018-08-19T08:11:35.896Z,101293.11
2018-08-19T08:12:39.539Z,101295.07
2018-08-19T08:13:42.980Z,101294.18
2018-08-19T08:14:50.672Z,101295.56
2018-08-19T08:15:56.080Z,101293.84
2018-08-19T08:17:00.211Z,101293.27
2018-08-19T08:18:03.759Z,101294.08
2018-08-19T08:19:07.378Z,101292.95
2018-08-19T08:20:10.829Z,101290.98
2018-08-19T08:21:15.006Z,101291.45
2018-08-19T08:22:18.337Z,101290.30
2018-08-19T08:23:23.861Z,101288.92
2018-08-19T08:24:27.374Z,101286.04
2018-08-19T08:25:30.852Z,101284.89
2018-08-19T08:26:36.621Z,101290.66
2018-08-19T08:27:40.060Z,101290.09
2018-08-19T08:28:50.860Z,101290.09
2018-08-19T08:29:54.561Z,101288.70
2018-08-19T08:30:58.040Z,101286.42
2018-08-19T08:32:01.465Z,101286.42
2018-08-19T08:33:05.023Z,101288.94
2018-08-19T08:34:08.767Z,101292.86
2018-08-19T08:35:12.220Z,101282.50
2018-08-19T08:36:15.637Z,101288.94
2018-08-19T08:37:19.110Z,101286.73
2018-08-19T08:38:22.552Z,101282.92
2018-08-19T08:39:26.020Z,101282.69
2018-08-19T08:40:29.502Z,101276.67
2018-08-19T08:41:32.918Z,101277.83
2018-08-19T08:42:39.816Z,101279.22
2018-08-19T08:43:43.268Z,101277.36
2018-08-19T08:44:46.676Z,101276.44
2018-08-19T08:45:50.152Z,101282.91
2018-08-19T08:46:53.685Z,101274.59
2018-08-19T08:47:57.195Z,101275.98
2018-08-19T08:49:00.578Z,101278.98
2018-08-19T08:50:04.388Z,101277.59
2018-08-19T08:51:07.887Z,101277.36
2018-08-19T08:52:17.014Z,101279.55
2018-08-19T08:53:20.643Z,101280.13
2018-08-19T08:54:24.017Z,101275.98
2018-08-19T08:55:27.488Z,101278.75
2018-08-19T08:56:31.024Z,101284.87
2018-08-19T08:57:34.466Z,101284.06
2018-08-19T08:58:37.962Z,101279.90
2018-08-19T08:59:41.692Z,101284.06
2018-08-19T09:00:45.124Z,101284.37
2018-08-19T09:01:48.672Z,101279.33
2018-08-19T09:02:52.161Z,101282.67
2018-08-19T09:03:55.541Z,101278.28
2018-08-19T09:04:58.976Z,101276.05
2018-08-19T09:06:02.465Z,101276.63
2018-08-19T09:07:05.924Z,101278.02
2018-08-19T09:08:09.385Z,101273.86
2018-08-19T09:09:12.828Z,101268.89
2018-08-19T09:10:16.222Z,101277.78
2018-08-19T09:11:19.655Z,101269.70
2018-08-19T09:12:56.600Z,101271.34
2018-08-19T09:14:00.139Z,101273.86
2018-08-19T09:15:03.613Z,101266.69
2018-08-19T09:16:07.013Z,101265.30
2018-08-19T09:17:10.722Z,101266.45
2018-08-19T09:18:14.176Z,101268.66
2018-08-19T09:19:17.699Z,101265.30
2018-08-19T09:20:21.266Z,101263.69
2018-08-19T09:21:24.765Z,101263.11
2018-08-19T09:22:28.222Z,101266.45
2018-08-19T09:23:31.677Z,101261.48
2018-08-19T09:24:35.159Z,101261.22
2018-08-19T09:25:38.681Z,101263.45
2018-08-19T09:26:42.168Z,101257.06
2018-08-19T09:27:45.621Z,101259.30
2018-08-19T09:28:49.085Z,101264.58
2018-08-19T09:29:52.540Z,101260.98
2018-08-19T09:30:56.110Z,101262.95
2018-08-19T09:31:59.690Z,101256.60
2018-08-19T09:33:03.524Z,101262.95
2018-08-19T09:34:08.497Z,101262.14
2018-08-19T09:35:11.909Z,101261.56
2018-08-19T09:36:15.393Z,101256.02
2018-08-19T09:37:18.837Z,101257.41
2018-08-19T09:38:23.318Z,101257.17
2018-08-19T09:39:26.742Z,101253.25
2018-08-19T09:40:30.383Z,101255.45
2018-08-19T09:41:33.893Z,101253.02
2018-08-19T09:42:37.347Z,101253.83
2018-08-19T09:43:40.784Z,101250.48
2018-08-19T09:44:46.924Z,101260.18
2018-08-19T09:45:53.876Z,101250.48
2018-08-19T09:46:57.512Z,101255.45
2018-08-19T09:48:01.604Z,101253.25
2018-08-19T09:49:04.853Z,101250.48
2018-08-19T09:50:08.357Z,101246.32
2018-08-19T09:51:15.728Z,101245.51
2018-08-19T09:52:19.169Z,101250.71
2018-08-19T09:53:22.627Z,101243.78
2018-08-19T09:54:30.200Z,101249.09
2018-08-19T09:55:40.751Z,101247.94
2018-08-19T09:56:44.176Z,101246.82
2018-08-19T09:57:52.819Z,101247.63
2018-08-19T09:59:01.501Z,101249.02
2018-08-19T10:00:05.442Z,101237.34
2018-08-19T10:01:15.483Z,101238.50
2018-08-19T10:02:18.969Z,101242.08
2018-08-19T10:03:22.437Z,101241.50
2018-08-19T10:04:26.648Z,101241.50
2018-08-19T10:05:33.192Z,101233.19
2018-08-19T10:06:36.830Z,101230.42
2018-08-19T10:07:47.023Z,101230.57
2018-08-19T10:08:50.449Z,101233.92
2018-08-19T10:09:53.873Z,101233.70
2018-08-19T10:10:57.293Z,101233.23
2018-08-19T10:12:00.712Z,101233.00
2018-08-19T10:13:04.529Z,101226.07
2018-08-19T10:14:07.950Z,101230.35
2018-08-19T10:15:11.385Z,101230.92
2018-08-19T10:16:14.949Z,101226.19
2018-08-19T10:17:18.561Z,101222.03
2018-08-19T10:18:22.079Z,101219.60
2018-08-19T10:19:25.520Z,101220.98
2018-08-19T10:20:29.002Z,101224.92
2018-08-19T10:21:32.720Z,101223.42
2018-08-19T10:22:41.443Z,101225.38
2018-08-19T10:23:44.891Z,101226.77
2018-08-19T10:24:48.284Z,101219.84
2018-08-19T10:25:52.545Z,101212.44
2018-08-19T10:26:56.420Z,101215.21
2018-08-19T10:27:59.894Z,101212.67
2018-08-19T10:29:03.286Z,101219.84
2018-08-19T10:30:07.089Z,101219.84
2018-08-19T10:31:19.284Z,101214.29
2018-08-19T10:32:22.735Z,101212.67
2018-08-19T10:33:26.212Z,101211.52
2018-08-19T10:34:31.203Z,101214.76
2018-08-19T10:35:35.253Z,101212.56
2018-08-19T10:36:38.664Z,101206.20
2018-08-19T10:37:42.096Z,101208.98
2018-08-19T10:38:45.496Z,101207.83
2018-08-19T10:39:49.075Z,101206.44
2018-08-19T10:40:57.503Z,101206.44
2018-08-19T10:42:19.466Z,101206.67
2018-08-19T10:43:22.885Z,101207.71
2018-08-19T10:44:27.900Z,101206.91
2018-08-19T10:45:31.384Z,101209.09
2018-08-19T10:46:34.838Z,101197.20
2018-08-19T10:47:38.240Z,101203.55
2018-08-19T10:48:41.686Z,101199.16
2018-08-19T10:49:59.848Z,101204.13
2018-08-19T10:51:03.710Z,101201.36
2018-08-19T10:52:10.572Z,101202.66
2018-08-19T10:53:19.449Z,101193.77
2018-08-19T10:54:22.831Z,101191.23
2018-08-19T10:55:27.176Z,101194.80
2018-08-19T10:56:30.610Z,101193.66
2018-08-19T10:57:34.104Z,101191.69
2018-08-19T10:58:40.400Z,101184.75
2018-08-19T10:59:43.928Z,101185.80
2018-08-19T11:00:47.461Z,101182.45
2018-08-19T11:01:50.870Z,101181.75
2018-08-19T11:02:54.399Z,101176.78
2018-08-19T11:03:57.833Z,101179.56
2018-08-19T11:05:01.417Z,101183.14
2018-08-19T11:06:04.854Z,101180.59
2018-08-19T11:07:08.306Z,101179.44
2018-08-19T11:08:12.376Z,101176.44
2018-08-19T11:09:16.558Z,101177.25
2018-08-19T11:10:26.471Z,101180.25
2018-08-19T11:11:33.357Z,101175.28
2018-08-19T11:12:36.826Z,101181.41
2018-08-19T11:13:40.309Z,101179.44
2018-08-19T11:14:43.763Z,101169.50
2018-08-19T11:15:57.758Z,101173.89
2018-08-19T11:17:20.518Z,101171.81
2018-08-19T11:18:48.864Z,101170.89
2018-08-19T11:19:52.839Z,101169.50
2018-08-19T11:20:59.181Z,101167.89
2018-08-19T11:22:02.789Z,101163.50
2018-08-19T11:27:30.731Z,101169.97
2018-08-19T11:28:38.045Z,101163.61
2018-08-19T11:29:42.112Z,101165.58
2018-08-19T11:30:45.582Z,101163.95
2018-08-19T11:31:49.053Z,101162.57
2018-08-19T11:32:53.711Z,101159.56
2018-08-19T11:34:00.424Z,101165.34
2018-08-19T11:35:04.031Z,101155.64
2018-08-19T11:36:08.225Z,101156.56
2018-08-19T11:37:11.619Z,101151.25
2018-08-19T11:38:15.010Z,101146.28
2018-08-19T11:39:19.467Z,101151.59
2018-08-19T11:40:22.887Z,101141.89
2018-08-19T11:41:26.840Z,101139.11
2018-08-19T11:44:21.148Z,101144.66
2018-08-19T11:45:24.568Z,101145.23
2018-08-19T11:46:27.980Z,101141.66
2018-08-19T11:47:31.419Z,101140.16
2018-08-19T11:48:35.396Z,101138.31
2018-08-19T11:49:39.218Z,101136.34
2018-08-19T11:50:42.656Z,101138.53
2018-08-19T11:51:52.035Z,101138.31
2018-08-19T11:52:57.571Z,101136.92
2018-08-19T11:54:01.029Z,101139.70
2018-08-19T11:55:04.523Z,101138.31
2018-08-19T11:56:08.421Z,101139.70
2018-08-19T11:57:12.879Z,101132.98
2018-08-19T11:58:32.991Z,101136.34
2018-08-19T11:59:41.959Z,101128.02
2018-08-19T12:00:50.771Z,101128.02
2018-08-19T12:01:54.217Z,101127.45
2018-08-19T12:02:58.381Z,101123.05
2018-08-19T12:04:07.457Z,101124.44
2018-08-19T12:05:10.939Z,101123.05
2018-08-19T12:06:14.590Z,101124.44
2018-08-19T12:07:18.775Z,101127.22
2018-08-19T12:08:22.239Z,101129.98
2018-08-19T12:09:25.670Z,101131.14
2018-08-19T12:10:29.149Z,101125.02
2018-08-19T12:11:36.258Z,101125.83
2018-08-19T12:14:24.811Z,101119.13
2018-08-19T12:15:28.236Z,101118.32
2018-08-19T12:16:31.784Z,101111.38
2018-08-19T12:17:35.587Z,101117.16
2018-08-19T12:18:39.457Z,101109.19
2018-08-19T12:19:44.225Z,101111.16
2018-08-19T12:20:47.803Z,101119.70
2018-08-19T12:21:59.272Z,101116.35
2018-08-19T12:23:16.896Z,101116.13
2018-08-19T12:24:24.285Z,101113.58
2018-08-19T12:25:29.717Z,101105.27
2018-08-19T12:26:37.617Z,101103.88